首页
METAR-TAF:

METAR-TAF

机场 :

尼古拉耶夫, 乌克兰

纬度: 47-03-29N, 经度: 031-55-15E, 海拔: 56米

当前天气观测

该预报发布于49分钟前的08:00 UTC
风速4节,风向北转西北,在西东北之间变化
温度 5°C
湿度 48%
气压 1023 hPa
能见度10公里或以上
1500米以下无云,无积雨云

METAR: UKON 010800Z 33002MPS 270V050 CAVOK 05/M05 Q1023 NOSIG

时间: 11:49 (08:49 UTC)

预报

该预报发布于47分钟前的08:02 UTC
预报有效从01日的 09点(UTC)到 01日的 18点(UTC)
风速6节,风向西
能见度10公里或以上
散云层高于2000英尺, 积雨云.

TAF: UKON 010802Z 0109/0118 28003MPS 9999 SCT020CB

超过4000个机场的气象观测和天气预报(METAR&TAF报告)。

可查询的气象台以黄色和红色小点在地图上表示。

将鼠标移到小点上方,可查看气象台名称。

然后点击查看天气观测和预报。

如需切换地图:点击带黑十字的绿色按钮放大地图;点击带横线的绿色按钮缩小地图;或者点击绿色箭头查看邻近地区的地图。


METAR-TAF: